createdAt,value
2023-05-14T00:00:44.068Z,46.33
2023-05-14T00:02:15.927Z,46.22
2023-05-14T00:03:47.643Z,46.27
2023-05-14T00:05:19.354Z,46.29
2023-05-14T00:06:51.137Z,46.32
2023-05-14T00:08:22.821Z,46.44
2023-05-14T00:09:54.713Z,46.71
2023-05-14T00:11:26.348Z,46.47
2023-05-14T00:12:58.336Z,46.76
2023-05-14T00:14:30.088Z,46.61
2023-05-14T00:16:02.675Z,46.54
2023-05-14T00:17:34.222Z,46.84
2023-05-14T00:19:06.106Z,46.55
2023-05-14T00:20:38.092Z,46.64
2023-05-14T00:22:09.836Z,46.63
2023-05-14T00:23:41.795Z,46.41
2023-05-14T00:25:13.663Z,46.66
2023-05-14T00:26:46.146Z,46.38
2023-05-14T00:28:18.393Z,46.82
2023-05-14T00:29:50.092Z,47.04
2023-05-14T00:31:21.725Z,46.90
2023-05-14T00:32:53.903Z,46.66
2023-05-14T00:34:26.282Z,46.95
2023-05-14T00:35:58.002Z,46.73
2023-05-14T00:37:29.604Z,47.17
2023-05-14T00:39:01.274Z,47.17
2023-05-14T00:40:33.035Z,46.87
2023-05-14T00:42:04.805Z,46.88
2023-05-14T00:43:36.441Z,47.19
2023-05-14T00:45:08.306Z,47.22
2023-05-14T00:46:40.288Z,46.94
2023-05-14T00:48:12.223Z,46.95
2023-05-14T00:49:43.802Z,46.71
2023-05-14T00:51:16.313Z,47.18
2023-05-14T00:52:48.203Z,46.66
2023-05-14T00:54:19.917Z,47.06
2023-05-14T00:55:51.995Z,46.95
2023-05-14T00:57:23.672Z,47.23
2023-05-14T00:58:55.336Z,47.22
2023-05-14T01:00:27.273Z,46.95
2023-05-14T01:01:59.083Z,47.28
2023-05-14T01:03:33.660Z,47.36
2023-05-14T01:05:05.588Z,47.36
2023-05-14T01:06:55.915Z,47.39
2023-05-14T01:08:31.399Z,47.58
2023-05-14T01:10:04.797Z,47.41
2023-05-14T01:11:36.631Z,47.32
2023-05-14T01:13:27.855Z,47.62
2023-05-14T01:15:05.191Z,47.21
2023-05-14T01:16:37.669Z,47.17
2023-05-14T01:18:10.626Z,47.49
2023-05-14T01:19:45.692Z,47.65
2023-05-14T01:21:30.002Z,47.52
2023-05-14T01:23:01.502Z,47.53
2023-05-14T01:24:33.044Z,47.47
2023-05-14T01:26:04.954Z,47.58
2023-05-14T01:27:43.789Z,47.39
2023-05-14T01:29:18.380Z,47.67
2023-05-14T01:30:56.074Z,47.59
2023-05-14T01:32:27.714Z,47.63
2023-05-14T01:34:00.434Z,47.65
2023-05-14T01:35:32.317Z,47.71
2023-05-14T01:37:04.097Z,47.86
2023-05-14T01:38:36.373Z,47.43
2023-05-14T01:40:08.608Z,47.63
2023-05-14T01:41:40.399Z,47.41
2023-05-14T01:43:12.702Z,47.66
2023-05-14T01:44:44.351Z,47.78
2023-05-14T01:46:18.378Z,47.41
2023-05-14T01:47:50.491Z,47.74
2023-05-14T01:49:22.081Z,47.56
2023-05-14T01:50:53.844Z,47.48
2023-05-14T01:52:25.491Z,47.69
2023-05-14T01:53:57.322Z,47.57
2023-05-14T01:55:29.398Z,47.66
2023-05-14T01:57:00.988Z,47.59
2023-05-14T01:58:32.742Z,47.51
2023-05-14T02:00:04.694Z,47.64
2023-05-14T02:01:36.791Z,47.97
2023-05-14T02:03:08.644Z,47.86
2023-05-14T02:04:40.558Z,47.80
2023-05-14T02:06:12.160Z,47.76
2023-05-14T02:07:43.736Z,47.68
2023-05-14T02:09:15.578Z,47.73
2023-05-14T02:10:47.233Z,47.72
2023-05-14T02:12:19.414Z,47.79
2023-05-14T02:13:51.399Z,48.16
2023-05-14T02:15:23.227Z,47.89
2023-05-14T02:16:55.385Z,47.94
2023-05-14T02:18:27.132Z,47.86
2023-05-14T02:19:58.851Z,47.95
2023-05-14T02:21:30.871Z,48.18
2023-05-14T02:23:02.476Z,48.00
2023-05-14T02:24:34.383Z,47.73
2023-05-14T02:26:06.212Z,47.71
2023-05-14T02:27:37.971Z,47.91
2023-05-14T02:29:09.750Z,47.69
2023-05-14T02:30:41.801Z,47.97
2023-05-14T02:32:13.626Z,48.03
2023-05-14T02:33:45.534Z,48.10
2023-05-14T02:35:17.249Z,48.03
2023-05-14T02:36:49.076Z,48.42
2023-05-14T02:38:20.862Z,48.56
2023-05-14T02:39:53.794Z,48.45
2023-05-14T02:41:25.488Z,48.53
2023-05-14T02:42:57.095Z,48.39
2023-05-14T02:44:28.902Z,48.46
2023-05-14T02:46:00.535Z,48.62
2023-05-14T02:47:32.226Z,48.63
2023-05-14T02:49:04.081Z,48.83
2023-05-14T02:50:35.706Z,48.58
2023-05-14T02:52:07.424Z,48.65
2023-05-14T02:53:39.458Z,48.60
2023-05-14T02:55:11.937Z,48.70
2023-05-14T02:56:43.744Z,48.53
2023-05-14T02:58:15.498Z,48.55
2023-05-14T02:59:47.019Z,48.67
2023-05-14T03:01:19.129Z,48.76
2023-05-14T03:02:51.762Z,48.79
2023-05-14T03:04:23.853Z,48.89
2023-05-14T03:05:55.893Z,48.92
2023-05-14T03:07:27.638Z,48.97
2023-05-14T03:08:59.592Z,49.17
2023-05-14T03:10:32.955Z,49.42
2023-05-14T03:12:05.287Z,49.19
2023-05-14T03:13:37.495Z,49.35
2023-05-14T03:15:09.602Z,49.57
2023-05-14T03:16:42.593Z,49.65
2023-05-14T03:18:15.308Z,49.36
2023-05-14T03:19:47.028Z,49.70
2023-05-14T03:21:19.684Z,49.66
2023-05-14T03:22:52.174Z,49.59
2023-05-14T03:24:24.077Z,49.75
2023-05-14T03:25:57.082Z,49.80
2023-05-14T03:27:29.638Z,49.80
2023-05-14T03:29:01.443Z,49.69
2023-05-14T03:30:33.645Z,49.69
2023-05-14T03:32:06.257Z,49.89
2023-05-14T03:33:38.046Z,49.54
2023-05-14T03:35:10.071Z,49.72
2023-05-14T03:36:41.753Z,49.60
2023-05-14T03:38:13.746Z,49.76
2023-05-14T03:39:46.012Z,49.56
2023-05-14T03:41:18.744Z,49.75
2023-05-14T03:42:51.216Z,49.84
2023-05-14T03:44:23.672Z,49.78
2023-05-14T03:45:55.779Z,49.64
2023-05-14T03:47:27.686Z,49.77
2023-05-14T03:49:00.968Z,49.86
2023-05-14T03:50:32.886Z,49.96
2023-05-14T03:52:04.837Z,49.94
2023-05-14T03:53:36.827Z,49.71
2023-05-14T03:55:08.616Z,49.76
2023-05-14T03:56:40.378Z,49.93
2023-05-14T03:58:14.700Z,49.70
2023-05-14T03:59:46.328Z,49.54
2023-05-14T04:01:18.019Z,49.73
2023-05-14T04:02:49.992Z,49.65
2023-05-14T04:04:22.938Z,50.12
2023-05-14T04:05:54.989Z,50.00
2023-05-14T04:07:26.976Z,49.82
2023-05-14T04:08:58.582Z,49.88
2023-05-14T04:10:31.235Z,50.12
2023-05-14T04:12:03.578Z,50.09
2023-05-14T04:13:35.122Z,50.36
2023-05-14T04:15:07.410Z,50.32
2023-05-14T04:16:39.461Z,50.37
2023-05-14T04:18:11.549Z,50.41
2023-05-14T04:19:43.138Z,50.67
2023-05-14T04:21:15.278Z,50.50
2023-05-14T04:22:47.260Z,50.76
2023-05-14T04:24:19.038Z,50.57
2023-05-14T04:25:51.300Z,50.75
2023-05-14T04:27:23.572Z,50.67
2023-05-14T04:28:55.776Z,50.68
2023-05-14T04:30:27.601Z,50.84
2023-05-14T04:31:59.252Z,50.77
2023-05-14T04:33:31.271Z,51.10
2023-05-14T04:35:04.442Z,50.68
2023-05-14T04:36:36.203Z,51.18
2023-05-14T04:38:07.993Z,50.84
2023-05-14T04:39:39.571Z,51.01
2023-05-14T04:41:11.453Z,51.49
2023-05-14T04:42:43.827Z,51.11
2023-05-14T04:44:15.997Z,51.13
2023-05-14T04:45:47.749Z,51.32
2023-05-14T04:47:21.475Z,51.20
2023-05-14T04:48:53.540Z,51.55
2023-05-14T04:50:26.118Z,51.44
2023-05-14T04:51:57.913Z,51.41
2023-05-14T04:53:29.688Z,51.77
2023-05-14T04:55:01.266Z,51.69
2023-05-14T04:56:32.860Z,51.79
2023-05-14T04:58:04.539Z,52.12
2023-05-14T04:59:36.287Z,51.76
2023-05-14T05:01:07.915Z,51.81
2023-05-14T05:02:39.755Z,52.17
2023-05-14T05:04:11.426Z,52.53
2023-05-14T05:05:43.258Z,52.60
2023-05-14T05:07:14.956Z,52.52
2023-05-14T05:08:46.733Z,52.72
2023-05-14T05:10:18.485Z,52.53
2023-05-14T05:11:50.403Z,52.51
2023-05-14T05:13:22.522Z,52.53
2023-05-14T05:14:54.521Z,52.66
2023-05-14T05:16:26.765Z,52.67
2023-05-14T05:17:58.857Z,52.33
2023-05-14T05:19:42.389Z,53.15
2023-05-14T05:21:14.992Z,52.68
2023-05-14T05:22:46.609Z,53.12
2023-05-14T05:24:18.246Z,52.96
2023-05-14T05:25:50.584Z,53.39
2023-05-14T05:27:23.019Z,52.83
2023-05-14T05:28:55.208Z,53.49
2023-05-14T05:30:27.097Z,53.22
2023-05-14T05:31:58.651Z,53.73
2023-05-14T05:33:30.659Z,52.91
2023-05-14T05:35:02.317Z,53.48
2023-05-14T05:36:34.227Z,53.60
2023-05-14T05:38:07.750Z,53.64
2023-05-14T05:39:39.945Z,53.32
2023-05-14T05:41:11.474Z,53.54
2023-05-14T05:42:43.124Z,53.72
2023-05-14T05:44:15.111Z,53.35
2023-05-14T05:45:46.968Z,53.38
2023-05-14T05:47:18.596Z,53.67
2023-05-14T05:48:50.227Z,53.65
2023-05-14T05:50:22.870Z,53.68
2023-05-14T05:51:55.108Z,54.21
2023-05-14T05:53:27.050Z,54.02
2023-05-14T05:54:59.087Z,54.30
2023-05-14T05:56:30.870Z,54.42
2023-05-14T05:58:02.451Z,53.78
2023-05-14T05:59:34.299Z,54.35
2023-05-14T06:01:06.816Z,54.24
2023-05-14T06:02:38.488Z,53.88
2023-05-14T06:04:10.210Z,54.45
2023-05-14T06:05:41.984Z,54.48
2023-05-14T06:07:13.778Z,53.98
2023-05-14T06:08:45.486Z,54.76
2023-05-14T06:10:17.836Z,54.24
2023-05-14T06:11:49.563Z,54.73
2023-05-14T06:13:21.274Z,54.07
2023-05-14T06:14:55.594Z,54.90
2023-05-14T06:16:27.466Z,54.88
2023-05-14T06:17:59.710Z,54.53
2023-05-14T06:19:31.636Z,54.74
2023-05-14T06:21:03.175Z,54.99
2023-05-14T06:22:35.187Z,55.32
2023-05-14T06:24:07.000Z,55.36
2023-05-14T06:25:39.024Z,55.21
2023-05-14T06:27:11.640Z,55.25
2023-05-14T06:28:43.498Z,55.49
2023-05-14T06:30:15.510Z,55.43
2023-05-14T06:31:47.235Z,55.14
2023-05-14T06:33:20.560Z,55.58
2023-05-14T06:34:52.277Z,55.15
2023-05-14T06:36:24.204Z,55.38
2023-05-14T06:37:56.316Z,55.17
2023-05-14T06:39:27.965Z,55.25
2023-05-14T06:40:59.547Z,55.38
2023-05-14T06:42:31.714Z,55.23
2023-05-14T06:44:03.784Z,55.10
2023-05-14T06:45:36.098Z,55.29
2023-05-14T06:47:08.621Z,55.22
2023-05-14T06:48:40.452Z,55.04
2023-05-14T06:50:11.997Z,55.39
2023-05-14T06:51:43.792Z,55.68
2023-05-14T06:53:15.500Z,55.36
2023-05-14T06:54:47.225Z,55.74
2023-05-14T06:56:18.838Z,56.00
2023-05-14T06:57:51.115Z,56.17
2023-05-14T06:59:22.816Z,55.92
2023-05-14T07:00:55.110Z,55.75
2023-05-14T07:02:27.346Z,56.29
2023-05-14T07:03:59.856Z,55.70
2023-05-14T07:05:32.375Z,55.66
2023-05-14T07:07:05.156Z,55.77
2023-05-14T07:08:37.318Z,55.95
2023-05-14T07:10:09.031Z,55.91
2023-05-14T07:11:40.935Z,55.66
2023-05-14T07:13:12.716Z,55.88
2023-05-14T07:14:45.322Z,56.35
2023-05-14T07:16:16.988Z,56.11
2023-05-14T07:17:49.459Z,56.21
2023-05-14T07:19:23.518Z,56.45
2023-05-14T07:20:55.381Z,56.17
2023-05-14T07:22:27.787Z,56.39
2023-05-14T07:23:59.807Z,56.03
2023-05-14T07:25:33.018Z,56.01
2023-05-14T07:27:04.879Z,55.98
2023-05-14T07:28:37.270Z,55.95
2023-05-14T07:30:09.457Z,56.13
2023-05-14T07:31:41.727Z,56.35
2023-05-14T07:33:13.538Z,56.07
2023-05-14T07:34:45.755Z,56.14
2023-05-14T07:36:17.806Z,56.07
2023-05-14T07:37:50.270Z,56.44
2023-05-14T07:39:21.806Z,56.29
2023-05-14T07:40:53.436Z,56.36
2023-05-14T07:42:35.126Z,56.38
2023-05-14T07:44:09.311Z,56.67
2023-05-14T07:45:42.022Z,56.66
2023-05-14T07:47:17.463Z,56.54
2023-05-14T07:48:49.605Z,56.65
2023-05-14T07:50:22.364Z,56.50
2023-05-14T07:51:54.384Z,57.16
2023-05-14T07:53:26.908Z,56.42
2023-05-14T07:54:58.906Z,56.60
2023-05-14T07:56:32.116Z,56.87
2023-05-14T07:58:04.178Z,57.00
2023-05-14T07:59:36.093Z,56.89
2023-05-14T08:01:09.316Z,57.45
2023-05-14T08:02:41.310Z,57.25
2023-05-14T08:04:13.478Z,56.95
2023-05-14T08:05:45.594Z,57.41
2023-05-14T08:07:17.729Z,57.68
2023-05-14T08:08:50.162Z,57.18
2023-05-14T08:10:21.934Z,57.26
2023-05-14T08:11:54.395Z,57.09
2023-05-14T08:13:26.378Z,57.40
2023-05-14T08:14:58.105Z,57.20
2023-05-14T08:16:30.178Z,57.62
2023-05-14T08:18:04.269Z,57.73
2023-05-14T08:19:36.335Z,57.74
2023-05-14T08:21:11.191Z,57.67
2023-05-14T08:22:42.863Z,57.63
2023-05-14T08:24:15.372Z,57.98
2023-05-14T08:25:47.390Z,57.90
2023-05-14T08:27:22.640Z,58.01
2023-05-14T08:28:54.995Z,58.15
2023-05-14T08:30:27.176Z,57.67
2023-05-14T08:32:03.710Z,57.82
2023-05-14T08:33:41.113Z,57.51
2023-05-14T08:35:23.351Z,57.99
2023-05-14T08:36:55.446Z,58.23
2023-05-14T08:38:27.280Z,58.28
2023-05-14T08:40:02.421Z,57.99
2023-05-14T08:41:34.699Z,58.17
2023-05-14T08:43:06.303Z,58.30
2023-05-14T08:44:39.751Z,58.24
2023-05-14T08:46:11.558Z,58.17
2023-05-14T08:48:09.231Z,58.57
2023-05-14T08:49:42.587Z,58.35
2023-05-14T08:51:14.816Z,58.25
2023-05-14T08:52:46.643Z,58.12
2023-05-14T08:54:18.880Z,58.42
2023-05-14T08:55:51.414Z,58.86
2023-05-14T08:57:25.013Z,58.49
2023-05-14T08:58:57.033Z,58.55
2023-05-14T09:00:29.670Z,58.60
2023-05-14T09:02:02.321Z,58.63
2023-05-14T09:03:34.562Z,58.66
2023-05-14T09:05:07.522Z,58.63
2023-05-14T09:06:43.126Z,58.68
2023-05-14T09:08:16.069Z,58.85
2023-05-14T09:09:48.183Z,58.47
2023-05-14T09:11:20.686Z,58.32
2023-05-14T09:12:53.152Z,58.77
2023-05-14T09:14:25.140Z,58.52
2023-05-14T09:15:57.017Z,58.75
2023-05-14T09:17:28.693Z,58.42
2023-05-14T09:19:01.187Z,58.43
2023-05-14T09:20:32.910Z,58.33
2023-05-14T09:22:08.134Z,58.31
2023-05-14T09:23:49.846Z,58.17
2023-05-14T09:25:21.516Z,58.53
2023-05-14T09:26:54.104Z,58.43
2023-05-14T09:28:28.974Z,58.42
2023-05-14T09:30:07.671Z,58.41
2023-05-14T09:31:39.490Z,58.08
2023-05-14T09:33:11.353Z,58.13
2023-05-14T09:34:43.162Z,58.36
2023-05-14T09:36:15.324Z,58.28
2023-05-14T09:37:47.944Z,58.66
2023-05-14T09:39:20.050Z,58.41
2023-05-14T09:40:51.825Z,58.60
2023-05-14T09:42:26.830Z,58.63
2023-05-14T09:43:58.780Z,58.95
2023-05-14T09:45:30.389Z,58.50
2023-05-14T09:47:02.189Z,58.29
2023-05-14T09:48:35.122Z,58.60
2023-05-14T09:50:16.411Z,58.55
2023-05-14T09:51:50.759Z,58.43
2023-05-14T09:53:22.587Z,58.58
2023-05-14T09:54:54.713Z,58.65
2023-05-14T09:56:26.502Z,58.48
2023-05-14T09:58:04.304Z,58.65
2023-05-14T09:59:48.421Z,58.66
2023-05-14T10:01:23.264Z,58.67
2023-05-14T10:02:55.297Z,58.65
2023-05-14T10:04:27.052Z,58.70
2023-05-14T10:06:09.633Z,58.58
2023-05-14T10:07:45.831Z,58.61
2023-05-14T10:09:20.924Z,58.33
2023-05-14T10:11:21.560Z,58.58
2023-05-14T10:12:53.821Z,58.95
2023-05-14T10:14:27.085Z,58.95
2023-05-14T10:16:06.950Z,58.93
2023-05-14T10:17:38.787Z,58.94
2023-05-14T10:19:13.361Z,59.10
2023-05-14T10:20:52.255Z,58.99
2023-05-14T10:22:28.711Z,58.92
2023-05-14T10:24:00.975Z,59.02
2023-05-14T10:25:32.499Z,59.20
2023-05-14T10:27:04.166Z,59.00
2023-05-14T10:28:36.768Z,59.06
2023-05-14T10:30:12.158Z,59.06
2023-05-14T10:31:47.708Z,59.18
2023-05-14T10:33:19.586Z,59.30
2023-05-14T10:34:54.265Z,59.40
2023-05-14T10:36:25.873Z,59.45
2023-05-14T10:37:59.005Z,59.37
2023-05-14T10:39:47.263Z,59.62
2023-05-14T10:41:19.103Z,60.07
2023-05-14T10:42:50.837Z,59.56
2023-05-14T10:44:22.622Z,59.40
2023-05-14T10:45:54.277Z,59.51
2023-05-14T10:47:26.603Z,59.48
2023-05-14T10:48:59.818Z,59.59
2023-05-14T10:50:31.554Z,59.65
2023-05-14T10:52:03.286Z,59.68
2023-05-14T10:53:36.460Z,59.66
2023-05-14T10:55:08.369Z,59.83
2023-05-14T10:56:39.985Z,59.94
2023-05-14T10:58:14.861Z,60.05
2023-05-14T10:59:49.604Z,59.79
2023-05-14T11:01:21.316Z,59.85
2023-05-14T11:02:53.224Z,59.77
2023-05-14T11:04:25.506Z,59.69
2023-05-14T11:05:57.700Z,59.86
2023-05-14T11:07:33.317Z,59.71
2023-05-14T11:09:07.416Z,59.92
2023-05-14T11:10:42.400Z,59.73
2023-05-14T11:12:15.355Z,59.53
2023-05-14T11:13:47.126Z,59.69
2023-05-14T11:15:22.341Z,59.54
2023-05-14T11:16:54.203Z,59.65
2023-05-14T11:18:29.507Z,59.57
2023-05-14T11:20:01.360Z,59.42
2023-05-14T11:21:33.257Z,59.50
2023-05-14T11:23:05.200Z,59.56
2023-05-14T11:24:36.964Z,59.73
2023-05-14T11:26:08.964Z,59.66
2023-05-14T11:27:41.007Z,59.70
2023-05-14T11:29:12.543Z,59.82
2023-05-14T11:30:44.277Z,59.81
2023-05-14T11:32:16.205Z,59.76
2023-05-14T11:33:47.930Z,60.01
2023-05-14T11:35:19.690Z,59.97
2023-05-14T11:36:51.463Z,59.91
2023-05-14T11:38:23.208Z,60.00
2023-05-14T11:39:55.361Z,59.88
2023-05-14T11:41:28.346Z,60.10
2023-05-14T11:43:00.348Z,60.15
2023-05-14T11:44:32.315Z,59.97
2023-05-14T11:46:03.925Z,59.80
2023-05-14T11:47:35.960Z,59.83
2023-05-14T11:49:07.817Z,60.21
2023-05-14T11:50:40.751Z,60.31
2023-05-14T11:52:14.970Z,59.96
2023-05-14T11:53:47.373Z,59.95
2023-05-14T11:55:19.120Z,60.19
2023-05-14T11:56:51.580Z,60.00
2023-05-14T11:58:23.380Z,60.14
2023-05-14T11:59:58.070Z,60.03
2023-05-14T12:01:34.636Z,60.00
2023-05-14T12:03:06.502Z,59.99
2023-05-14T12:04:38.271Z,60.02
2023-05-14T12:06:10.072Z,60.18
2023-05-14T12:07:44.631Z,60.03
2023-05-14T12:09:16.890Z,60.16
2023-05-14T12:10:48.601Z,59.91
2023-05-14T12:12:23.271Z,60.10
2023-05-14T12:13:54.954Z,59.89
2023-05-14T12:15:26.887Z,60.00
2023-05-14T12:16:58.547Z,59.92
2023-05-14T12:18:30.996Z,60.27
2023-05-14T12:20:03.119Z,60.10
2023-05-14T12:21:34.659Z,60.00
2023-05-14T12:23:07.930Z,59.88
2023-05-14T12:24:39.632Z,60.17
2023-05-14T12:26:12.535Z,59.86
2023-05-14T12:27:45.100Z,60.05
2023-05-14T12:29:16.771Z,60.13
2023-05-14T12:30:48.875Z,60.04
2023-05-14T12:32:20.619Z,59.93
2023-05-14T12:33:52.163Z,59.75
2023-05-14T12:35:24.089Z,60.14
2023-05-14T12:36:56.313Z,59.84
2023-05-14T12:38:28.787Z,59.81
2023-05-14T12:40:00.752Z,59.96
2023-05-14T12:41:32.773Z,59.97
2023-05-14T12:43:04.787Z,59.80
2023-05-14T12:44:36.391Z,59.84
2023-05-14T12:46:08.009Z,60.06
2023-05-14T12:47:39.655Z,59.94
2023-05-14T12:49:11.366Z,59.98
2023-05-14T12:50:42.903Z,59.56
2023-05-14T12:52:25.726Z,59.54
2023-05-14T12:54:04.857Z,59.64
2023-05-14T12:55:36.467Z,59.78
2023-05-14T12:57:08.608Z,59.87
2023-05-14T12:58:40.561Z,59.87
2023-05-14T13:00:21.188Z,60.05
2023-05-14T13:01:52.934Z,60.03
2023-05-14T13:03:25.208Z,59.80
2023-05-14T13:04:56.865Z,59.65
2023-05-14T13:06:28.516Z,59.75
2023-05-14T13:08:00.561Z,59.69
2023-05-14T13:09:32.307Z,59.75
2023-05-14T13:11:04.112Z,59.94
2023-05-14T13:12:35.774Z,59.93
2023-05-14T13:14:07.422Z,59.98
2023-05-14T13:15:39.029Z,59.77
2023-05-14T13:17:11.144Z,59.87
2023-05-14T13:18:42.800Z,60.00
2023-05-14T13:20:14.533Z,59.90
2023-05-14T13:21:46.105Z,59.92
2023-05-14T13:23:17.674Z,59.73
2023-05-14T13:24:49.374Z,59.80
2023-05-14T13:26:21.786Z,59.89
2023-05-14T13:27:53.449Z,59.94
2023-05-14T13:29:26.145Z,59.86
2023-05-14T13:31:08.085Z,59.78
2023-05-14T13:32:41.559Z,59.84
2023-05-14T13:34:13.773Z,59.87
2023-05-14T13:35:45.917Z,59.82
2023-05-14T13:37:18.096Z,60.04
2023-05-14T13:38:49.915Z,60.04
2023-05-14T13:40:21.498Z,59.92
2023-05-14T13:41:56.195Z,59.77
2023-05-14T13:43:28.989Z,60.10
2023-05-14T13:45:00.806Z,59.79
2023-05-14T13:46:32.689Z,59.87
2023-05-14T13:48:04.481Z,59.89
2023-05-14T13:49:36.855Z,59.93
2023-05-14T13:51:08.533Z,59.72
2023-05-14T13:52:40.386Z,59.77
2023-05-14T13:54:11.977Z,59.69
2023-05-14T13:55:44.382Z,59.55
2023-05-14T13:57:18.000Z,59.56
2023-05-14T13:58:49.864Z,60.34
2023-05-14T14:00:22.080Z,59.69
2023-05-14T14:01:53.664Z,59.69
2023-05-14T14:03:25.264Z,59.96
2023-05-14T14:04:56.875Z,59.55
2023-05-14T14:06:31.142Z,59.74
2023-05-14T14:08:13.163Z,59.84
2023-05-14T14:09:54.015Z,59.71
2023-05-14T14:11:26.039Z,59.69
2023-05-14T14:12:57.608Z,59.59
2023-05-14T14:14:29.159Z,59.81
2023-05-14T14:16:03.373Z,59.79
2023-05-14T14:17:35.160Z,59.68
2023-05-14T14:19:07.037Z,59.67
2023-05-14T14:20:38.835Z,59.55
2023-05-14T14:22:10.449Z,59.62
2023-05-14T14:23:43.862Z,59.65
2023-05-14T14:25:15.541Z,59.58
2023-05-14T14:26:47.024Z,59.46
2023-05-14T14:28:19.210Z,59.34
2023-05-14T14:29:50.769Z,59.32
2023-05-14T14:31:22.516Z,59.63
2023-05-14T14:32:54.151Z,59.57
2023-05-14T14:34:25.711Z,59.45
2023-05-14T14:35:57.255Z,59.64
2023-05-14T14:37:28.834Z,59.69
2023-05-14T14:39:00.430Z,59.58
2023-05-14T14:40:33.263Z,59.70
2023-05-14T14:42:05.000Z,59.64
2023-05-14T14:43:40.441Z,59.65
2023-05-14T14:45:11.948Z,59.59
2023-05-14T14:46:43.523Z,59.72
2023-05-14T14:48:27.638Z,59.64
2023-05-14T14:49:59.300Z,59.47
2023-05-14T14:51:31.513Z,59.19
2023-05-14T14:53:02.987Z,59.55
2023-05-14T14:54:35.379Z,59.48
2023-05-14T14:56:06.964Z,59.71
2023-05-14T14:57:38.551Z,59.76
2023-05-14T14:59:10.633Z,59.69
2023-05-14T15:00:42.304Z,59.88
2023-05-14T15:02:13.966Z,59.63
2023-05-14T15:03:45.727Z,59.67
2023-05-14T15:05:17.334Z,59.99
2023-05-14T15:06:48.968Z,59.73
2023-05-14T15:08:20.985Z,59.83
2023-05-14T15:09:52.468Z,60.02
2023-05-14T15:11:24.007Z,60.31
2023-05-14T15:12:59.076Z,60.20
2023-05-14T15:14:30.661Z,60.13
2023-05-14T15:16:02.457Z,60.14
2023-05-14T15:17:34.540Z,60.40
2023-05-14T15:19:06.109Z,60.39
2023-05-14T15:20:37.691Z,60.24
2023-05-14T15:22:09.307Z,60.41
2023-05-14T15:23:40.823Z,60.22
2023-05-14T15:25:12.333Z,60.35
2023-05-14T15:26:44.038Z,60.09
2023-05-14T15:28:15.752Z,60.13
2023-05-14T15:29:47.414Z,60.32
2023-05-14T15:31:19.200Z,60.29
2023-05-14T15:32:51.320Z,60.28
2023-05-14T15:34:22.929Z,60.34
2023-05-14T15:35:54.505Z,60.20
2023-05-14T15:37:26.729Z,60.17
2023-05-14T15:38:58.988Z,60.16
2023-05-14T15:40:30.662Z,59.93
2023-05-14T15:42:02.280Z,59.96
2023-05-14T15:43:34.052Z,60.03
2023-05-14T15:45:05.850Z,60.18
2023-05-14T15:46:38.181Z,60.34
2023-05-14T15:48:10.097Z,60.30
2023-05-14T15:49:41.860Z,60.34
2023-05-14T15:51:13.831Z,60.58
2023-05-14T15:52:45.987Z,60.59
2023-05-14T15:54:18.241Z,60.89
2023-05-14T15:55:50.020Z,60.78
2023-05-14T15:57:22.279Z,60.91
2023-05-14T15:58:53.996Z,60.80
2023-05-14T16:00:26.424Z,60.90
2023-05-14T16:01:58.150Z,60.79
2023-05-14T16:03:29.815Z,60.95
2023-05-14T16:05:01.365Z,60.70
2023-05-14T16:06:33.863Z,60.64
2023-05-14T16:08:05.473Z,60.70
2023-05-14T16:09:36.957Z,60.82
2023-05-14T16:11:08.603Z,60.79
2023-05-14T16:12:40.160Z,60.83
2023-05-14T16:14:11.922Z,60.87
2023-05-14T16:15:43.613Z,60.99
2023-05-14T16:17:15.647Z,61.03
2023-05-14T16:18:47.647Z,61.06
2023-05-14T16:20:19.341Z,61.08
2023-05-14T16:21:50.847Z,61.00
2023-05-14T16:23:22.593Z,60.96
2023-05-14T16:24:54.114Z,61.00
2023-05-14T16:26:26.621Z,60.91
2023-05-14T16:27:58.744Z,60.87
2023-05-14T16:29:31.543Z,60.95
2023-05-14T16:31:03.793Z,60.97
2023-05-14T16:32:35.712Z,60.94
2023-05-14T16:34:07.314Z,61.08
2023-05-14T16:35:39.560Z,60.78
2023-05-14T16:37:13.066Z,60.75
2023-05-14T16:39:05.146Z,61.12
2023-05-14T16:40:36.452Z,60.78
2023-05-14T16:42:08.026Z,60.58
2023-05-14T16:43:39.739Z,60.79
2023-05-14T16:45:11.419Z,60.77
2023-05-14T16:46:43.281Z,60.82
2023-05-14T16:48:14.822Z,60.72
2023-05-14T16:49:46.985Z,60.82
2023-05-14T16:51:18.662Z,60.80
2023-05-14T16:52:50.250Z,60.68
2023-05-14T16:54:21.714Z,60.88
2023-05-14T16:55:53.266Z,60.70
2023-05-14T16:57:25.678Z,60.91
2023-05-14T16:58:57.248Z,60.23
2023-05-14T17:00:28.847Z,60.84
2023-05-14T17:02:00.748Z,60.68
2023-05-14T17:03:32.469Z,60.69
2023-05-14T17:05:04.154Z,60.79
2023-05-14T17:06:36.164Z,60.46
2023-05-14T17:08:07.721Z,60.36
2023-05-14T17:09:39.263Z,60.11
2023-05-14T17:11:10.765Z,60.20
2023-05-14T17:12:42.289Z,60.44
2023-05-14T17:14:13.786Z,60.41
2023-05-14T17:15:45.414Z,60.74
2023-05-14T17:17:16.960Z,60.61
2023-05-14T17:18:49.300Z,60.58
2023-05-14T17:20:21.208Z,60.27
2023-05-14T17:21:52.791Z,60.28
2023-05-14T17:23:24.354Z,60.29
2023-05-14T17:24:55.869Z,60.28
2023-05-14T17:26:27.690Z,60.27
2023-05-14T17:27:59.508Z,60.51
2023-05-14T17:29:31.170Z,60.72
2023-05-14T17:31:02.681Z,60.71
2023-05-14T17:32:34.226Z,60.69
2023-05-14T17:34:05.821Z,60.69
2023-05-14T17:35:37.707Z,60.82
2023-05-14T17:37:09.241Z,60.70
2023-05-14T17:38:41.587Z,60.81
2023-05-14T17:40:13.467Z,60.95
2023-05-14T17:41:45.144Z,60.66
2023-05-14T17:43:16.764Z,60.44
2023-05-14T17:44:48.214Z,60.62
2023-05-14T17:46:20.557Z,60.64
2023-05-14T17:47:52.256Z,60.26
2023-05-14T17:49:23.947Z,60.29
2023-05-14T17:50:55.659Z,60.44
2023-05-14T17:52:27.228Z,60.39
2023-05-14T17:53:58.800Z,60.27
2023-05-14T17:55:30.378Z,60.74
2023-05-14T17:57:02.181Z,60.78
2023-05-14T17:58:33.793Z,60.91
2023-05-14T18:00:05.616Z,60.92
2023-05-14T18:01:37.248Z,61.13
2023-05-14T18:03:09.106Z,61.20
2023-05-14T18:04:40.702Z,61.14
2023-05-14T18:06:12.264Z,61.37
2023-05-14T18:07:43.743Z,61.15
2023-05-14T18:09:15.811Z,61.02
2023-05-14T18:10:47.368Z,61.00
2023-05-14T18:12:18.911Z,61.16
2023-05-14T18:13:50.436Z,61.74
2023-05-14T18:15:24.210Z,61.33
2023-05-14T18:16:56.219Z,61.73
2023-05-14T18:18:27.815Z,61.94
2023-05-14T18:20:00.315Z,61.97
2023-05-14T18:21:32.537Z,61.71
2023-05-14T18:23:05.002Z,61.91
2023-05-14T18:24:37.038Z,61.94
2023-05-14T18:26:08.528Z,62.15
2023-05-14T18:27:44.920Z,61.92
2023-05-14T18:29:16.982Z,61.86
2023-05-14T18:30:50.088Z,61.76
2023-05-14T18:32:22.036Z,61.80
2023-05-14T18:33:54.082Z,61.67
2023-05-14T18:35:26.329Z,61.88
2023-05-14T18:36:58.593Z,61.68
2023-05-14T18:38:30.198Z,61.81
2023-05-14T18:40:02.408Z,61.97
2023-05-14T18:41:34.445Z,62.16
2023-05-14T18:43:06.157Z,62.00
2023-05-14T18:44:39.641Z,62.16
2023-05-14T18:46:12.394Z,62.21
2023-05-14T18:47:44.158Z,62.05
2023-05-14T18:49:16.371Z,62.19
2023-05-14T18:50:47.902Z,62.15
2023-05-14T18:52:19.567Z,61.89
2023-05-14T18:53:51.176Z,62.21
2023-05-14T18:55:23.071Z,61.93
2023-05-14T18:56:54.746Z,61.91
2023-05-14T18:58:26.335Z,61.86
2023-05-14T18:59:57.941Z,61.78
2023-05-14T19:01:29.717Z,61.87
2023-05-14T19:03:01.365Z,61.92
2023-05-14T19:04:33.534Z,62.09
2023-05-14T19:06:05.518Z,62.09
2023-05-14T19:07:37.446Z,62.09
2023-05-14T19:09:09.690Z,62.09
2023-05-14T19:10:41.265Z,62.27
2023-05-14T19:12:12.841Z,62.36
2023-05-14T19:13:46.844Z,62.47
2023-05-14T19:15:18.523Z,62.26
2023-05-14T19:16:50.062Z,62.10
2023-05-14T19:18:21.915Z,62.27
2023-05-14T19:19:53.577Z,62.21
2023-05-14T19:21:25.904Z,62.14
2023-05-14T19:22:57.560Z,61.95
2023-05-14T19:24:29.067Z,61.92
2023-05-14T19:26:01.253Z,61.99
2023-05-14T19:27:32.923Z,62.06
2023-05-14T19:29:04.516Z,62.00
2023-05-14T19:30:36.046Z,61.93
2023-05-14T19:32:07.942Z,61.97
2023-05-14T19:33:39.506Z,62.12
2023-05-14T19:35:11.675Z,62.18
2023-05-14T19:36:43.709Z,62.15
2023-05-14T19:38:15.449Z,62.02
2023-05-14T19:39:47.319Z,62.03
2023-05-14T19:41:19.251Z,62.05
2023-05-14T19:42:51.038Z,62.12
2023-05-14T19:44:22.641Z,61.78
2023-05-14T19:45:54.189Z,61.94
2023-05-14T19:47:25.831Z,61.75
2023-05-14T19:48:57.530Z,61.67
2023-05-14T19:50:29.127Z,61.79
2023-05-14T19:52:00.694Z,61.58